createdAt,value
2019-01-28T00:09:01.403Z,2.0
2019-01-28T00:14:01.300Z,1.9
2019-01-28T00:24:01.321Z,1.8
2019-01-28T00:34:01.386Z,1.7
2019-01-28T00:39:01.269Z,1.6
2019-01-28T00:44:01.950Z,1.5
2019-01-28T00:54:01.690Z,1.4
2019-01-28T01:09:01.333Z,1.4
2019-01-28T01:14:01.263Z,1.3
2019-01-28T01:19:01.242Z,1.2
2019-01-28T01:29:01.423Z,1.1
2019-01-28T01:39:01.436Z,1.0
2019-01-28T01:49:01.402Z,0.9
2019-01-28T01:59:01.417Z,0.8
2019-01-28T02:14:01.392Z,0.8
2019-01-28T02:24:01.335Z,0.7
2019-01-28T02:39:01.414Z,0.6
2019-01-28T02:54:02.550Z,0.6
2019-01-28T03:09:01.342Z,0.6
2019-01-28T03:14:01.331Z,0.7
2019-01-28T03:19:01.263Z,0.8
2019-01-28T03:24:01.390Z,0.9
2019-01-28T03:34:01.339Z,1.0
2019-01-28T03:39:01.313Z,1.1
2019-01-28T03:44:01.277Z,1.2
2019-01-28T03:54:01.452Z,1.3
2019-01-28T04:09:01.418Z,1.3
2019-01-28T04:24:01.395Z,1.4
2019-01-28T04:39:01.396Z,1.4
2019-01-28T04:54:01.399Z,1.3
2019-01-28T04:59:01.343Z,1.2
2019-01-28T05:04:01.341Z,1.1
2019-01-28T05:10:01.254Z,1.0
2019-01-28T05:15:01.334Z,0.9
2019-01-28T05:25:01.350Z,0.8
2019-01-28T05:30:01.336Z,0.8
2019-01-28T05:35:01.428Z,0.7
2019-01-28T05:45:01.535Z,0.7
2019-01-28T05:50:01.533Z,0.8
2019-01-28T06:00:01.461Z,0.8
2019-01-28T06:05:01.326Z,0.9
2019-01-28T06:15:01.403Z,1.0
2019-01-28T06:20:01.400Z,1.1
2019-01-28T06:30:01.383Z,1.2
2019-01-28T06:40:01.407Z,1.3
2019-01-28T06:45:02.507Z,1.3
2019-01-28T07:00:01.439Z,1.3
2019-01-28T07:15:01.476Z,1.4
2019-01-28T07:31:01.468Z,1.4
2019-01-28T07:46:01.422Z,1.3
2019-01-28T07:56:01.489Z,1.2
2019-01-28T08:11:01.422Z,1.3
2019-01-28T08:26:01.419Z,1.3
2019-01-28T08:31:01.417Z,1.4
2019-01-28T08:46:01.471Z,1.5
2019-01-28T08:56:01.411Z,1.6
2019-01-28T09:11:01.420Z,1.7
2019-01-28T09:26:01.408Z,1.8
2019-01-28T09:36:01.411Z,1.9
2019-01-28T09:46:01.441Z,2.0
2019-01-28T09:56:01.417Z,2.1
2019-01-28T10:01:01.429Z,2.2
2019-01-28T10:06:01.449Z,2.3
2019-01-28T10:11:01.492Z,2.4
2019-01-28T10:22:01.436Z,2.5
2019-01-28T10:32:01.421Z,2.6
2019-01-28T10:37:01.507Z,2.7
2019-01-28T10:47:01.486Z,2.8
2019-01-28T10:52:01.437Z,2.9
2019-01-28T10:57:01.480Z,3.1
2019-01-28T11:02:01.294Z,3.2
2019-01-28T11:07:01.363Z,3.4
2019-01-28T11:12:01.278Z,3.6
2019-01-28T11:17:01.333Z,3.8
2019-01-28T11:22:01.367Z,4.0
2019-01-28T11:27:01.445Z,4.2
2019-01-28T11:32:01.362Z,4.3
2019-01-28T11:37:01.440Z,4.5
2019-01-28T11:52:01.353Z,4.4
2019-01-28T11:57:01.414Z,4.3
2019-01-28T12:02:01.277Z,4.2
2019-01-28T12:12:01.404Z,4.3
2019-01-28T12:22:02.360Z,4.4
2019-01-28T12:37:01.469Z,4.4
2019-01-28T12:42:01.435Z,4.5
2019-01-28T12:57:01.733Z,4.4
2019-01-28T13:02:01.482Z,4.3
2019-01-28T13:07:02.030Z,4.2
2019-01-28T13:17:01.433Z,4.1
2019-01-28T13:32:01.499Z,4.1
2019-01-28T13:47:01.453Z,4.1
2019-01-28T14:02:01.475Z,4.1
2019-01-28T14:12:01.421Z,4.0
2019-01-28T14:17:01.424Z,3.9
2019-01-28T14:22:01.395Z,3.8
2019-01-28T14:27:01.499Z,3.5
2019-01-28T14:32:01.452Z,3.2
2019-01-28T14:37:01.440Z,2.9
2019-01-28T14:42:01.412Z,2.7
2019-01-28T14:47:01.420Z,2.4
2019-01-28T14:52:01.409Z,2.2
2019-01-28T14:57:01.475Z,2.0
2019-01-28T15:02:01.402Z,1.9
2019-01-28T15:07:01.451Z,1.8
2019-01-28T15:17:01.445Z,1.7
2019-01-28T15:27:01.411Z,1.6
2019-01-28T15:37:01.518Z,1.5
2019-01-28T15:52:01.410Z,1.4
2019-01-28T16:07:01.466Z,1.4
2019-01-28T16:17:01.484Z,1.3
2019-01-28T16:27:01.438Z,1.2
2019-01-28T16:37:01.499Z,1.1
2019-01-28T16:42:01.517Z,1.0
2019-01-28T16:47:01.471Z,0.9
2019-01-28T16:57:01.268Z,0.8
2019-01-28T17:12:01.401Z,0.7
2019-01-28T17:22:01.298Z,0.6
2019-01-28T17:37:01.413Z,0.5
2019-01-28T17:52:01.392Z,0.5
2019-01-28T18:07:01.405Z,0.4
2019-01-28T18:23:01.396Z,0.4
2019-01-28T18:28:01.322Z,0.3
2019-01-28T18:38:01.418Z,0.2
2019-01-28T18:53:01.406Z,0.1
2019-01-28T19:18:01.392Z,0.1
2019-01-28T19:33:01.407Z,0.1
2019-01-28T19:38:01.321Z,0.2
2019-01-28T19:53:01.384Z,0.2
2019-01-28T19:58:01.453Z,0.3
2019-01-28T20:13:01.393Z,0.3
2019-01-28T20:23:01.415Z,0.2
2019-01-28T20:33:01.372Z,0.3
2019-01-28T20:38:01.437Z,0.2
2019-01-28T20:53:01.405Z,0.2
2019-01-28T20:58:01.326Z,0.1
2019-01-28T21:13:01.359Z,-0.1
2019-01-28T21:18:01.344Z,-0.2
2019-01-28T21:23:01.268Z,-0.3
2019-01-28T21:28:01.299Z,-0.4
2019-01-28T21:33:01.287Z,-0.5
2019-01-28T21:38:02.331Z,-0.6
2019-01-28T21:48:01.395Z,-0.7
2019-01-28T21:53:01.416Z,-0.8
2019-01-28T21:58:01.340Z,-0.9
2019-01-28T22:03:01.296Z,-1.0
2019-01-28T22:08:01.405Z,-1.2
2019-01-28T22:13:01.272Z,-1.3
2019-01-28T22:18:01.413Z,-1.4
2019-01-28T22:23:01.338Z,-1.5
2019-01-28T22:28:01.377Z,-1.6
2019-01-28T22:33:01.371Z,-1.7
2019-01-28T22:38:01.364Z,-1.8
2019-01-28T22:43:01.365Z,-1.9
2019-01-28T22:48:01.434Z,-2.0
2019-01-28T23:03:01.399Z,-2.1
2019-01-28T23:18:03.272Z,-2.1
2019-01-28T23:23:01.277Z,-2.2
2019-01-28T23:33:01.440Z,-2.3
2019-01-28T23:49:01.387Z,-2.3
